createdAt,value
2019-06-26T00:02:01.684Z,18.37
2019-06-26T00:04:27.850Z,17.45
2019-06-26T00:06:53.912Z,16.65
2019-06-26T00:09:19.914Z,16.70
2019-06-26T00:11:45.936Z,15.58
2019-06-26T00:14:11.943Z,21.97
2019-06-26T00:16:37.954Z,14.50
2019-06-26T00:19:03.968Z,15.03
2019-06-26T00:21:30.113Z,19.37
2019-06-26T00:23:56.017Z,18.32
2019-06-26T00:26:22.123Z,15.70
2019-06-26T00:28:48.281Z,21.37
2019-06-26T00:31:14.297Z,18.10
2019-06-26T00:33:40.413Z,16.17
2019-06-26T00:36:06.554Z,21.33
2019-06-26T00:38:32.674Z,20.25
2019-06-26T00:40:58.688Z,18.67
2019-06-26T00:43:24.692Z,21.15
2019-06-26T00:45:50.990Z,18.67
2019-06-26T00:48:17.142Z,20.10
2019-06-26T00:50:43.167Z,16.25
2019-06-26T00:53:09.076Z,20.00
2019-06-26T00:55:35.194Z,20.00
2019-06-26T00:58:01.310Z,24.30
2019-06-26T01:00:31.023Z,19.25
2019-06-26T01:02:57.035Z,20.20
2019-06-26T01:05:23.120Z,19.90
2019-06-26T01:07:49.219Z,23.60
2019-06-26T01:10:15.755Z,25.02
2019-06-26T01:12:41.846Z,26.17
2019-06-26T01:15:08.579Z,17.90
2019-06-26T01:17:34.710Z,16.27
2019-06-26T01:20:00.824Z,19.15
2019-06-26T01:22:26.982Z,24.02
2019-06-26T01:24:53.091Z,23.05
2019-06-26T01:27:19.240Z,17.98
2019-06-26T01:29:45.432Z,26.77
2019-06-26T01:32:11.540Z,19.15
2019-06-26T01:34:37.569Z,21.07
2019-06-26T01:37:03.670Z,17.85
2019-06-26T01:39:29.670Z,21.37
2019-06-26T01:41:55.744Z,19.82
2019-06-26T01:44:21.681Z,22.20
2019-06-26T01:46:47.690Z,17.37
2019-06-26T01:49:13.823Z,19.32
2019-06-26T01:51:39.873Z,21.55
2019-06-26T01:54:06.005Z,17.98
2019-06-26T01:56:32.026Z,20.77
2019-06-26T01:58:58.195Z,17.45
2019-06-26T02:01:24.355Z,18.60
2019-06-26T02:03:50.463Z,24.75
2019-06-26T02:06:16.498Z,18.75
2019-06-26T02:08:43.221Z,24.00
2019-06-26T02:11:09.214Z,15.68
2019-06-26T02:13:35.221Z,21.20
2019-06-26T02:16:01.323Z,20.97
2019-06-26T02:18:32.128Z,23.85
2019-06-26T02:20:58.303Z,23.85
2019-06-26T02:23:24.345Z,19.07
2019-06-26T02:25:50.350Z,22.45
2019-06-26T02:28:16.463Z,17.00
2019-06-26T02:30:42.580Z,18.20
2019-06-26T02:33:08.916Z,18.30
2019-06-26T02:35:34.924Z,18.35
2019-06-26T02:38:00.963Z,18.60
2019-06-26T02:40:27.075Z,18.40
2019-06-26T02:42:53.181Z,17.85
2019-06-26T02:45:19.293Z,15.70
2019-06-26T02:47:45.290Z,19.48
2019-06-26T02:50:11.418Z,15.93
2019-06-26T02:52:37.530Z,21.75
2019-06-26T02:55:06.142Z,21.10
2019-06-26T02:57:32.359Z,19.70
2019-06-26T02:59:58.631Z,22.13
2019-06-26T03:02:24.735Z,14.07
2019-06-26T03:04:50.760Z,19.82
2019-06-26T03:07:16.873Z,19.40
2019-06-26T03:09:42.996Z,18.95
2019-06-26T03:12:08.995Z,13.28
2019-06-26T03:14:35.175Z,13.43
2019-06-26T03:17:01.192Z,14.87
2019-06-26T03:19:27.210Z,21.33
2019-06-26T03:21:53.247Z,16.55
2019-06-26T03:24:19.153Z,15.93
2019-06-26T03:26:45.385Z,17.02
2019-06-26T03:29:11.423Z,16.93
2019-06-26T03:31:37.601Z,19.60
2019-06-26T03:34:03.644Z,18.87
2019-06-26T03:36:29.651Z,26.52
2019-06-26T03:38:55.655Z,22.80
2019-06-26T03:41:21.766Z,20.62
2019-06-26T03:43:47.679Z,20.92
2019-06-26T03:46:13.686Z,25.43
2019-06-26T03:48:39.791Z,24.92
2019-06-26T03:51:05.795Z,23.42
2019-06-26T03:53:31.911Z,25.02
2019-06-26T03:55:58.141Z,22.45
2019-06-26T03:58:24.141Z,20.97
2019-06-26T04:00:50.254Z,20.70
2019-06-26T04:03:16.400Z,22.20
2019-06-26T04:05:42.548Z,27.80
2019-06-26T04:08:08.484Z,20.32
2019-06-26T04:10:35.251Z,31.30
2019-06-26T04:13:01.358Z,21.37
2019-06-26T04:15:40.869Z,23.45
2019-06-26T04:17:55.412Z,22.73
2019-06-26T04:20:21.421Z,20.65
2019-06-26T04:22:47.804Z,22.07
2019-06-26T04:25:14.074Z,22.15
2019-06-26T04:27:40.129Z,22.85
2019-06-26T04:30:09.953Z,21.17
2019-06-26T04:32:36.372Z,23.83
2019-06-26T04:35:03.621Z,21.12
2019-06-26T04:37:29.816Z,21.52
2019-06-26T04:39:55.829Z,24.15
2019-06-26T04:42:21.864Z,20.08
2019-06-26T04:44:47.778Z,22.05
2019-06-26T04:47:13.797Z,25.02
2019-06-26T04:49:39.695Z,23.50
2019-06-26T04:52:05.810Z,26.97
2019-06-26T04:54:31.920Z,23.27
2019-06-26T04:56:58.050Z,27.73
2019-06-26T04:59:24.056Z,25.50
2019-06-26T05:01:50.073Z,30.95
2019-06-26T05:04:16.181Z,30.02
2019-06-26T05:06:42.198Z,27.40
2019-06-26T05:09:08.494Z,23.25
2019-06-26T05:11:34.652Z,22.10
2019-06-26T05:14:00.851Z,22.27
2019-06-26T05:16:26.989Z,27.48
2019-06-26T05:18:53.002Z,26.82
2019-06-26T05:21:19.139Z,25.80
2019-06-26T05:23:45.350Z,23.73
2019-06-26T05:26:11.469Z,27.67
2019-06-26T05:28:37.588Z,25.50
2019-06-26T05:31:03.699Z,26.65
2019-06-26T05:33:29.727Z,24.02
2019-06-26T05:35:55.855Z,26.57
2019-06-26T05:38:21.763Z,29.87
2019-06-26T05:40:47.904Z,26.93
2019-06-26T05:43:13.938Z,29.27
2019-06-26T05:45:40.060Z,27.60
2019-06-26T05:48:06.439Z,26.97
2019-06-26T05:50:32.564Z,26.55
2019-06-26T05:52:58.684Z,31.40
2019-06-26T05:55:24.817Z,38.17
2019-06-26T05:57:53.375Z,36.40
2019-06-26T06:00:19.691Z,33.40
2019-06-26T06:02:45.850Z,34.55
2019-06-26T06:05:12.567Z,30.85
2019-06-26T06:07:38.667Z,26.65
2019-06-26T06:10:05.952Z,24.57
2019-06-26T06:12:32.425Z,27.13
2019-06-26T06:14:58.970Z,28.90
2019-06-26T06:17:26.233Z,29.35
2019-06-26T06:19:52.810Z,24.90
2019-06-26T06:22:19.016Z,27.62
2019-06-26T06:24:45.201Z,30.35
2019-06-26T06:27:11.232Z,26.35
2019-06-26T06:29:37.397Z,23.47
2019-06-26T06:32:05.036Z,21.87
2019-06-26T06:34:31.181Z,26.20
2019-06-26T06:36:57.140Z,24.27
2019-06-26T06:39:23.275Z,20.65
2019-06-26T06:41:49.291Z,24.57
2019-06-26T06:44:15.427Z,24.07
2019-06-26T06:46:42.362Z,22.70
2019-06-26T06:49:08.477Z,27.65
2019-06-26T06:51:36.946Z,21.50
2019-06-26T06:54:03.370Z,29.35
2019-06-26T06:56:29.290Z,20.90
2019-06-26T06:58:55.289Z,27.90
2019-06-26T07:01:21.427Z,20.60
2019-06-26T07:03:47.545Z,21.17
2019-06-26T07:06:13.671Z,23.85
2019-06-26T07:08:39.823Z,23.87
2019-06-26T07:11:05.831Z,22.67
2019-06-26T07:13:31.944Z,20.95
2019-06-26T07:15:58.058Z,21.90
2019-06-26T07:18:24.206Z,22.75
2019-06-26T07:20:50.335Z,21.82
2019-06-26T07:23:16.333Z,19.55
2019-06-26T07:25:42.438Z,21.70
2019-06-26T07:28:08.577Z,22.50
2019-06-26T07:30:34.573Z,18.30
2019-06-26T07:33:00.489Z,19.95
2019-06-26T07:35:26.510Z,20.00
2019-06-26T07:37:52.625Z,23.60
2019-06-26T07:40:19.049Z,17.15
2019-06-26T07:42:45.071Z,17.00
2019-06-26T07:45:11.531Z,20.77
2019-06-26T07:47:43.552Z,17.67
2019-06-26T07:50:06.256Z,22.95
2019-06-26T07:52:32.414Z,20.35
2019-06-26T07:54:58.728Z,20.02
2019-06-26T07:57:24.793Z,17.17
2019-06-26T07:59:50.808Z,15.63
2019-06-26T08:02:16.870Z,15.25
2019-06-26T08:04:43.002Z,20.88
2019-06-26T08:07:09.151Z,15.65
2019-06-26T08:09:35.175Z,14.65
2019-06-26T08:12:01.338Z,15.75
2019-06-26T08:14:27.263Z,19.35
2019-06-26T08:16:53.418Z,17.90
2019-06-26T08:19:19.439Z,15.85
2019-06-26T08:21:46.734Z,19.48
2019-06-26T08:24:13.057Z,22.02
2019-06-26T08:26:39.073Z,17.27
2019-06-26T08:29:05.175Z,18.45
2019-06-26T08:31:31.293Z,21.90
2019-06-26T08:33:57.238Z,19.95
2019-06-26T08:36:23.353Z,19.40
2019-06-26T08:38:49.394Z,19.65
2019-06-26T08:41:15.458Z,16.80
2019-06-26T08:43:41.719Z,20.10
2019-06-26T08:46:07.753Z,15.83
2019-06-26T08:48:39.410Z,21.50
2019-06-26T08:51:01.782Z,21.17
2019-06-26T08:53:27.903Z,17.30
2019-06-26T08:55:54.030Z,16.40
2019-06-26T08:58:20.073Z,17.55
2019-06-26T09:00:46.256Z,16.57
2019-06-26T09:03:12.345Z,17.60
2019-06-26T09:05:48.000Z,24.00
2019-06-26T09:08:06.324Z,16.25
2019-06-26T09:10:32.418Z,16.00
2019-06-26T09:12:58.557Z,27.60
2019-06-26T09:15:24.666Z,22.22
2019-06-26T09:17:50.690Z,21.07
2019-06-26T09:20:32.489Z,16.42
2019-06-26T09:22:58.668Z,19.32
2019-06-26T09:25:24.824Z,16.77
2019-06-26T09:27:50.931Z,23.35
2019-06-26T09:30:17.093Z,15.38
2019-06-26T09:32:43.116Z,15.55
2019-06-26T09:35:09.353Z,13.25
2019-06-26T09:37:35.370Z,17.80
2019-06-26T09:40:01.549Z,15.48
2019-06-26T09:42:27.570Z,11.80
2019-06-26T09:44:53.581Z,13.15
2019-06-26T09:47:19.662Z,11.85
2019-06-26T09:49:45.745Z,14.38
2019-06-26T09:52:11.886Z,16.75
2019-06-26T09:54:38.014Z,12.60
2019-06-26T09:57:04.122Z,19.32
2019-06-26T09:59:30.279Z,17.87
2019-06-26T10:01:56.189Z,18.02
2019-06-26T10:04:22.215Z,15.18
2019-06-26T10:06:48.350Z,17.87
2019-06-26T10:09:14.359Z,17.10
2019-06-26T10:11:40.388Z,16.23
2019-06-26T10:14:06.672Z,19.35
2019-06-26T10:16:32.818Z,15.80
2019-06-26T10:19:09.435Z,16.23
2019-06-26T10:21:26.859Z,15.45
2019-06-26T10:23:52.777Z,15.68
2019-06-26T10:26:18.890Z,13.70
2019-06-26T10:28:45.047Z,16.55
2019-06-26T10:31:11.330Z,12.60
2019-06-26T10:33:37.452Z,13.00
2019-06-26T10:36:03.584Z,17.70
2019-06-26T10:38:29.543Z,8.85
2019-06-26T10:40:55.712Z,13.45
2019-06-26T10:43:21.822Z,15.35
2019-06-26T10:45:47.863Z,13.45
2019-06-26T10:48:13.866Z,15.55
2019-06-26T10:50:49.429Z,9.90
2019-06-26T10:53:08.022Z,12.80
2019-06-26T10:55:34.166Z,12.43
2019-06-26T10:58:00.178Z,18.15
2019-06-26T11:00:27.552Z,14.38
2019-06-26T11:02:53.579Z,14.23
2019-06-26T11:05:19.977Z,16.32
2019-06-26T11:07:46.098Z,14.43
2019-06-26T11:10:12.739Z,12.95
2019-06-26T11:12:38.923Z,14.03
2019-06-26T11:15:06.365Z,8.68
2019-06-26T11:17:32.483Z,17.40
2019-06-26T11:19:58.532Z,11.38
2019-06-26T11:22:24.644Z,11.35
2019-06-26T11:24:50.710Z,14.58
2019-06-26T11:27:16.827Z,12.90
2019-06-26T11:29:42.923Z,10.48
2019-06-26T11:32:09.735Z,14.23
2019-06-26T11:34:35.988Z,11.12
2019-06-26T11:37:04.305Z,7.30
2019-06-26T11:39:30.200Z,7.97
2019-06-26T11:41:56.377Z,7.30
2019-06-26T11:44:22.493Z,7.35
2019-06-26T11:46:48.617Z,11.05
2019-06-26T11:49:14.626Z,7.62
2019-06-26T11:51:40.644Z,7.03
2019-06-26T11:54:06.754Z,7.35
2019-06-26T11:56:32.858Z,7.28
2019-06-26T11:58:58.983Z,6.85
2019-06-26T12:01:25.094Z,13.25
2019-06-26T12:03:51.243Z,9.88
2019-06-26T12:06:19.102Z,5.37
2019-06-26T12:08:45.509Z,5.92
2019-06-26T12:11:11.612Z,8.90
2019-06-26T12:13:37.764Z,7.22
2019-06-26T12:16:03.862Z,7.60
2019-06-26T12:18:29.868Z,6.78
2019-06-26T12:20:55.911Z,11.15
2019-06-26T12:23:22.023Z,5.95
2019-06-26T12:25:48.042Z,6.58
2019-06-26T12:28:13.947Z,4.80
2019-06-26T12:30:40.083Z,5.37
2019-06-26T12:33:06.185Z,5.20
2019-06-26T12:35:32.353Z,7.03
2019-06-26T12:37:58.572Z,6.78
2019-06-26T12:40:24.699Z,6.83
2019-06-26T12:42:55.510Z,5.87
2019-06-26T12:45:20.319Z,6.95
2019-06-26T12:47:46.430Z,8.00
2019-06-26T12:50:13.756Z,8.00
2019-06-26T12:52:39.891Z,6.65
2019-06-26T12:55:06.957Z,7.12
2019-06-26T12:57:32.993Z,6.80
2019-06-26T12:59:59.129Z,14.00
2019-06-26T13:02:25.297Z,8.45
2019-06-26T13:04:51.408Z,6.50
2019-06-26T13:07:17.540Z,11.85
2019-06-26T13:09:43.660Z,7.53
2019-06-26T13:12:09.694Z,8.25
2019-06-26T13:14:35.809Z,7.30
2019-06-26T13:17:01.930Z,8.95
2019-06-26T13:19:28.037Z,6.70
2019-06-26T13:21:54.202Z,6.55
2019-06-26T13:24:20.333Z,11.68
2019-06-26T13:26:46.436Z,8.98
2019-06-26T13:29:12.472Z,7.10
2019-06-26T13:31:38.728Z,8.18
2019-06-26T13:34:04.758Z,10.72
2019-06-26T13:36:30.810Z,9.35
2019-06-26T13:38:56.921Z,9.58
2019-06-26T13:41:23.036Z,8.08
2019-06-26T13:43:49.046Z,10.10
2019-06-26T13:46:15.152Z,12.35
2019-06-26T13:48:41.467Z,9.48
2019-06-26T13:51:09.630Z,7.65
2019-06-26T13:53:35.629Z,14.30
2019-06-26T13:56:02.135Z,8.00
2019-06-26T13:58:29.122Z,10.30
2019-06-26T14:00:56.683Z,7.58
2019-06-26T14:03:22.869Z,8.57
2019-06-26T14:05:48.884Z,9.33
2019-06-26T14:08:14.802Z,10.53
2019-06-26T14:10:40.845Z,7.40
2019-06-26T14:13:06.947Z,7.47
2019-06-26T14:15:32.951Z,10.93
2019-06-26T14:17:59.069Z,7.97
2019-06-26T14:20:25.118Z,8.18
2019-06-26T14:22:51.131Z,6.78
2019-06-26T14:25:17.575Z,6.85
2019-06-26T14:27:43.697Z,9.55
2019-06-26T14:30:10.705Z,8.73
2019-06-26T14:32:36.834Z,9.35
2019-06-26T14:35:06.359Z,10.80
2019-06-26T14:37:32.374Z,10.35
2019-06-26T14:39:58.412Z,8.35
2019-06-26T14:42:24.524Z,27.30
2019-06-26T14:44:52.719Z,9.83
2019-06-26T14:47:18.608Z,9.53
2019-06-26T14:49:44.817Z,7.95
2019-06-26T14:52:10.926Z,7.65
2019-06-26T14:54:36.953Z,8.58
2019-06-26T14:57:02.975Z,10.20
2019-06-26T14:59:28.973Z,8.25
2019-06-26T15:01:55.094Z,7.12
2019-06-26T15:04:21.144Z,8.00
2019-06-26T15:06:47.153Z,9.05
2019-06-26T15:09:13.295Z,8.85
2019-06-26T15:11:39.443Z,8.98
2019-06-26T15:14:06.441Z,8.18
2019-06-26T15:16:32.681Z,7.50
2019-06-26T15:18:58.848Z,7.03
2019-06-26T15:21:24.949Z,6.80
2019-06-26T15:23:50.963Z,8.13
2019-06-26T15:26:17.115Z,7.25
2019-06-26T15:28:43.019Z,7.35
2019-06-26T15:31:09.188Z,11.88
2019-06-26T15:33:36.649Z,9.00
2019-06-26T15:36:03.219Z,9.03
2019-06-26T15:38:29.381Z,9.90
2019-06-26T15:40:55.429Z,10.60
2019-06-26T15:43:21.546Z,9.83
2019-06-26T15:45:47.578Z,9.65
2019-06-26T15:48:13.496Z,8.25
2019-06-26T15:50:39.440Z,11.05
2019-06-26T15:53:05.450Z,11.55
2019-06-26T15:55:31.474Z,10.03
2019-06-26T15:57:57.606Z,9.18
2019-06-26T16:00:23.713Z,11.08
2019-06-26T16:02:49.657Z,10.75
2019-06-26T16:05:15.768Z,9.23
2019-06-26T16:07:41.977Z,11.63
2019-06-26T16:10:08.085Z,10.55
2019-06-26T16:12:34.214Z,10.58
2019-06-26T16:15:00.253Z,8.68
2019-06-26T16:17:37.119Z,12.05
2019-06-26T16:20:06.367Z,10.60
2019-06-26T16:22:33.019Z,13.13
2019-06-26T16:24:59.213Z,8.48
2019-06-26T16:27:25.345Z,14.28
2019-06-26T16:29:51.356Z,9.18
2019-06-26T16:32:17.410Z,9.00
2019-06-26T16:34:43.557Z,9.13
2019-06-26T16:37:09.672Z,9.73
2019-06-26T16:39:35.684Z,10.13
2019-06-26T16:42:01.694Z,8.65
2019-06-26T16:44:27.708Z,8.70
2019-06-26T16:46:53.753Z,19.52
2019-06-26T16:49:19.770Z,9.95
2019-06-26T16:51:45.785Z,9.85
2019-06-26T16:54:11.793Z,12.88
2019-06-26T16:56:37.737Z,13.48
2019-06-26T16:59:03.839Z,12.75
2019-06-26T17:01:29.852Z,15.85
2019-06-26T17:03:55.873Z,10.93
2019-06-26T17:06:21.919Z,11.73
2019-06-26T17:08:48.825Z,12.05
2019-06-26T17:11:14.845Z,10.93
2019-06-26T17:13:40.856Z,16.52
2019-06-26T17:16:06.979Z,11.03
2019-06-26T17:18:32.979Z,13.03
2019-06-26T17:20:59.099Z,13.08
2019-06-26T17:23:25.219Z,14.10
2019-06-26T17:25:51.238Z,14.78
2019-06-26T17:28:17.379Z,13.08
2019-06-26T17:30:43.685Z,11.73
2019-06-26T17:33:09.818Z,14.68
2019-06-26T17:35:36.563Z,13.65
2019-06-26T17:38:02.686Z,16.30
2019-06-26T17:40:28.937Z,12.82
2019-06-26T17:43:08.168Z,13.35
2019-06-26T17:45:23.125Z,12.80
2019-06-26T17:47:49.311Z,12.70
2019-06-26T17:50:16.685Z,15.70
2019-06-26T17:52:42.761Z,13.32
2019-06-26T17:55:09.190Z,12.78
2019-06-26T17:57:35.197Z,16.05
2019-06-26T18:00:01.548Z,28.60
2019-06-26T18:02:27.551Z,40.83
2019-06-26T18:04:53.620Z,25.90
2019-06-26T18:07:19.715Z,24.02
2019-06-26T18:09:45.630Z,18.52
2019-06-26T18:12:11.647Z,18.50
2019-06-26T18:14:37.802Z,20.15
2019-06-26T18:17:03.985Z,19.92
2019-06-26T18:19:30.783Z,19.17
2019-06-26T18:21:56.920Z,16.55
2019-06-26T18:24:22.937Z,21.68
2019-06-26T18:26:48.959Z,16.57
2019-06-26T18:29:14.960Z,14.20
2019-06-26T18:31:40.973Z,20.43
2019-06-26T18:34:06.981Z,18.35
2019-06-26T18:36:33.764Z,14.70
2019-06-26T18:38:59.929Z,24.92
2019-06-26T18:41:26.040Z,17.02
2019-06-26T18:43:51.948Z,18.37
2019-06-26T18:46:18.068Z,16.45
2019-06-26T18:48:44.107Z,21.75
2019-06-26T18:51:10.164Z,32.33
2019-06-26T18:53:36.170Z,17.70
2019-06-26T18:56:02.319Z,18.90
2019-06-26T18:58:30.760Z,17.07
2019-06-26T19:00:56.449Z,47.00
2019-06-26T19:03:22.449Z,24.67
2019-06-26T19:05:48.570Z,19.73
2019-06-26T19:08:14.713Z,24.07
2019-06-26T19:10:41.763Z,18.32
2019-06-26T19:13:07.884Z,20.30
2019-06-26T19:15:33.996Z,18.17
2019-06-26T19:18:00.110Z,15.58
2019-06-26T19:20:26.126Z,14.05
2019-06-26T19:22:52.342Z,28.47
2019-06-26T19:25:18.451Z,14.95
2019-06-26T19:27:44.459Z,22.37
2019-06-26T19:30:10.688Z,18.15
2019-06-26T19:32:37.631Z,19.85
2019-06-26T19:35:20.171Z,44.00
2019-06-26T19:37:32.577Z,17.95
2019-06-26T19:39:58.516Z,20.30
2019-06-26T19:42:24.550Z,22.65
2019-06-26T19:44:50.613Z,20.72
2019-06-26T19:47:16.730Z,18.52
2019-06-26T19:49:42.846Z,16.30
2019-06-26T19:52:08.876Z,19.23
2019-06-26T19:54:34.999Z,19.55
2019-06-26T19:57:01.067Z,20.72
2019-06-26T19:59:27.204Z,16.25
2019-06-26T20:01:53.126Z,18.80
2019-06-26T20:04:19.289Z,20.10
2019-06-26T20:06:45.424Z,23.67
2019-06-26T20:09:11.440Z,27.80
2019-06-26T20:11:37.567Z,24.57
2019-06-26T20:14:03.690Z,30.92
2019-06-26T20:16:29.720Z,23.07
2019-06-26T20:18:55.773Z,27.52
2019-06-26T20:21:21.943Z,13.98
2019-06-26T20:23:48.059Z,17.32
2019-06-26T20:26:14.183Z,21.42
2019-06-26T20:28:40.229Z,14.45
2019-06-26T20:31:06.242Z,22.40
2019-06-26T20:33:32.354Z,15.20
2019-06-26T20:35:58.383Z,20.35
2019-06-26T20:38:24.512Z,20.40
2019-06-26T20:40:50.656Z,17.35
2019-06-26T20:43:16.752Z,15.58
2019-06-26T20:45:42.887Z,16.48
2019-06-26T20:48:08.909Z,16.93
2019-06-26T20:50:34.930Z,17.25
2019-06-26T20:53:00.941Z,16.97
2019-06-26T20:55:26.845Z,15.75
2019-06-26T20:57:52.875Z,16.12
2019-06-26T21:00:22.364Z,15.18
2019-06-26T21:02:47.071Z,17.80
2019-06-26T21:05:13.287Z,15.20
2019-06-26T21:07:39.298Z,18.35
2019-06-26T21:10:05.657Z,20.15
2019-06-26T21:12:31.572Z,16.90
2019-06-26T21:14:57.491Z,16.70
2019-06-26T21:17:25.694Z,13.78
2019-06-26T21:19:51.308Z,14.20
2019-06-26T21:22:17.216Z,24.25
2019-06-26T21:24:43.238Z,16.10
2019-06-26T21:27:09.247Z,21.52
2019-06-26T21:29:35.357Z,18.05
2019-06-26T21:32:01.263Z,23.05
2019-06-26T21:34:27.414Z,15.58
2019-06-26T21:36:53.410Z,13.85
2019-06-26T21:39:19.333Z,15.40
2019-06-26T21:41:45.410Z,13.50
2019-06-26T21:44:11.513Z,22.80
2019-06-26T21:46:37.690Z,12.13
2019-06-26T21:49:03.595Z,15.90
2019-06-26T21:51:29.727Z,19.00
2019-06-26T21:53:55.830Z,14.90
2019-06-26T21:56:21.939Z,14.05
2019-06-26T21:58:48.054Z,16.82
2019-06-26T22:01:14.183Z,17.30
2019-06-26T22:03:40.323Z,17.10
2019-06-26T22:06:06.454Z,16.62
2019-06-26T22:08:32.785Z,17.05
2019-06-26T22:10:58.924Z,13.88
2019-06-26T22:13:25.027Z,16.87
2019-06-26T22:15:51.167Z,13.60
2019-06-26T22:18:17.228Z,16.12
2019-06-26T22:20:43.353Z,20.25
2019-06-26T22:23:09.489Z,15.05
2019-06-26T22:25:49.857Z,23.18
2019-06-26T22:28:03.644Z,17.42
2019-06-26T22:30:29.754Z,21.80
2019-06-26T22:32:55.891Z,17.12
2019-06-26T22:35:22.010Z,17.60
2019-06-26T22:37:48.123Z,15.35
2019-06-26T22:40:14.337Z,13.60
2019-06-26T22:42:40.457Z,17.87
2019-06-26T22:45:07.481Z,17.73
2019-06-26T22:47:33.619Z,18.90
2019-06-26T22:49:59.737Z,15.18
2019-06-26T22:52:25.935Z,16.32
2019-06-26T22:54:52.040Z,21.37
2019-06-26T22:57:18.415Z,16.12
2019-06-26T22:59:44.529Z,19.25
2019-06-26T23:02:10.651Z,15.68
2019-06-26T23:04:36.745Z,22.50
2019-06-26T23:07:02.845Z,16.75
2019-06-26T23:09:28.853Z,19.07
2019-06-26T23:11:54.974Z,15.35
2019-06-26T23:14:21.098Z,20.10
2019-06-26T23:16:47.155Z,19.10
2019-06-26T23:19:14.977Z,16.37
2019-06-26T23:21:41.325Z,21.85
2019-06-26T23:24:07.474Z,19.10
2019-06-26T23:26:33.590Z,16.30
2019-06-26T23:28:59.719Z,16.87
2019-06-26T23:31:25.735Z,19.17
2019-06-26T23:33:51.888Z,20.88
2019-06-26T23:36:17.910Z,23.60
2019-06-26T23:38:43.930Z,24.70
2019-06-26T23:41:10.046Z,27.45
2019-06-26T23:43:36.067Z,19.73
2019-06-26T23:46:02.185Z,23.65
2019-06-26T23:48:28.296Z,15.40
2019-06-26T23:50:54.318Z,14.00
2019-06-26T23:53:20.454Z,19.40
2019-06-26T23:55:46.470Z,15.30
2019-06-26T23:58:12.605Z,15.05
